createdAt,value
2022-10-05T00:01:30.516Z,100.00
2022-10-05T00:04:02.438Z,100.00
2022-10-05T00:06:30.573Z,100.00
2022-10-05T00:08:57.532Z,100.00
2022-10-05T00:11:24.311Z,100.00
2022-10-05T00:13:51.217Z,100.00
2022-10-05T00:16:20.614Z,100.00
2022-10-05T00:18:52.365Z,100.00
2022-10-05T00:21:27.239Z,100.00
2022-10-05T00:23:56.779Z,100.00
2022-10-05T00:26:25.547Z,100.00
2022-10-05T00:28:53.635Z,100.00
2022-10-05T00:31:26.537Z,100.00
2022-10-05T00:33:55.217Z,100.00
2022-10-05T00:36:22.519Z,100.00
2022-10-05T00:38:49.671Z,100.00
2022-10-05T00:41:48.858Z,100.00
2022-10-05T00:44:48.187Z,100.00
2022-10-05T00:47:49.576Z,100.00
2022-10-05T00:50:35.499Z,100.00
2022-10-05T00:53:40.125Z,100.00
2022-10-05T00:56:16.695Z,100.00
2022-10-05T00:59:30.145Z,100.00
2022-10-05T01:02:23.989Z,100.00
2022-10-05T01:04:59.516Z,100.00
2022-10-05T01:08:04.751Z,100.00
2022-10-05T01:10:48.774Z,100.00
2022-10-05T01:13:38.226Z,100.00
2022-10-05T01:16:14.494Z,100.00
2022-10-05T01:18:49.250Z,100.00
2022-10-05T01:21:23.613Z,100.00
2022-10-05T01:24:23.386Z,100.00
2022-10-05T01:27:14.393Z,100.00
2022-10-05T01:29:47.756Z,100.00
2022-10-05T01:32:26.286Z,100.00
2022-10-05T01:35:14.585Z,100.00
2022-10-05T01:38:24.838Z,100.00
2022-10-05T01:41:32.104Z,100.00
2022-10-05T01:44:16.913Z,100.00
2022-10-05T01:46:49.766Z,100.00
2022-10-05T01:49:28.594Z,100.00
2022-10-05T01:52:47.553Z,100.00
2022-10-05T01:55:29.343Z,100.00
2022-10-05T01:58:28.306Z,100.00
2022-10-05T02:01:04.423Z,100.00
2022-10-05T02:03:37.662Z,100.00
2022-10-05T02:06:16.847Z,100.00
2022-10-05T02:08:50.824Z,100.00
2022-10-05T02:11:18.759Z,100.00
2022-10-05T02:13:53.439Z,100.00
2022-10-05T02:16:34.724Z,100.00
2022-10-05T02:19:17.126Z,100.00
2022-10-05T02:21:46.096Z,100.00
2022-10-05T02:24:18.953Z,100.00
2022-10-05T02:26:46.135Z,100.00
2022-10-05T02:29:15.811Z,100.00
2022-10-05T02:32:03.806Z,100.00
2022-10-05T02:34:37.932Z,100.00
2022-10-05T02:37:42.338Z,100.00
2022-10-05T02:40:18.200Z,100.00
2022-10-05T02:42:56.960Z,100.00
2022-10-05T02:45:43.816Z,100.00
2022-10-05T02:48:45.154Z,100.00
2022-10-05T02:51:24.565Z,100.00
2022-10-05T02:53:57.874Z,100.00
2022-10-05T02:56:32.707Z,100.00
2022-10-05T02:59:32.025Z,100.00
2022-10-05T03:02:13.775Z,100.00
2022-10-05T03:05:07.088Z,100.00
2022-10-05T03:07:47.421Z,100.00
2022-10-05T03:10:53.080Z,100.00
2022-10-05T03:14:08.146Z,100.00
2022-10-05T03:16:55.304Z,100.00
2022-10-05T03:20:11.602Z,100.00
2022-10-05T03:22:41.329Z,100.00
2022-10-05T03:25:37.621Z,100.00
2022-10-05T03:28:17.189Z,100.00
2022-10-05T03:31:19.620Z,100.00
2022-10-05T03:33:55.961Z,100.00
2022-10-05T03:36:49.413Z,100.00
2022-10-05T03:39:27.011Z,100.00
2022-10-05T03:42:25.219Z,100.00
2022-10-05T03:45:03.791Z,100.00
2022-10-05T03:47:43.762Z,100.00
2022-10-05T03:50:46.649Z,100.00
2022-10-05T03:53:24.432Z,100.00
2022-10-05T03:56:03.330Z,100.00
2022-10-05T03:58:40.154Z,100.00
2022-10-05T04:01:12.564Z,100.00
2022-10-05T04:03:48.934Z,100.00
2022-10-05T04:06:37.054Z,100.00
2022-10-05T04:09:10.622Z,100.00
2022-10-05T04:11:41.021Z,100.00
2022-10-05T04:14:14.713Z,100.00
2022-10-05T04:16:51.082Z,100.00
2022-10-05T04:19:34.492Z,100.00
2022-10-05T04:22:29.764Z,100.00
2022-10-05T04:25:01.151Z,100.00
2022-10-05T04:27:33.929Z,100.00
2022-10-05T04:30:08.914Z,100.00
2022-10-05T04:32:48.718Z,100.00
2022-10-05T04:35:50.845Z,100.00
2022-10-05T04:38:56.510Z,100.00
2022-10-05T04:42:12.378Z,100.00
2022-10-05T04:45:20.671Z,100.00
2022-10-05T04:48:22.445Z,100.00
2022-10-05T04:51:06.504Z,100.00
2022-10-05T04:53:45.095Z,100.00
2022-10-05T04:56:18.986Z,100.00
2022-10-05T04:59:00.545Z,100.00
2022-10-05T05:08:36.331Z,100.00
2022-10-05T05:11:42.266Z,100.00
2022-10-05T05:14:39.064Z,100.00
2022-10-05T05:17:46.981Z,100.00
2022-10-05T05:20:29.144Z,100.00
2022-10-05T05:23:12.309Z,100.00
2022-10-05T05:26:01.251Z,100.00
2022-10-05T05:29:09.390Z,100.00
2022-10-05T05:31:46.996Z,100.00
2022-10-05T05:34:47.842Z,100.00
2022-10-05T05:38:02.320Z,100.00
2022-10-05T05:40:34.646Z,100.00
2022-10-05T05:43:23.905Z,100.00
2022-10-05T05:46:01.727Z,100.00
2022-10-05T05:48:39.838Z,100.00
2022-10-05T05:51:18.535Z,100.00
2022-10-05T05:53:48.127Z,100.00
2022-10-05T05:56:18.008Z,100.00
2022-10-05T05:58:57.590Z,100.00
2022-10-05T06:01:33.689Z,100.00
2022-10-05T06:04:29.299Z,100.00
2022-10-05T06:06:58.347Z,100.00
2022-10-05T06:09:34.339Z,100.00
2022-10-05T06:12:08.686Z,100.00
2022-10-05T06:14:40.033Z,100.00
2022-10-05T06:17:24.906Z,100.00
2022-10-05T06:19:53.878Z,100.00
2022-10-05T06:22:44.349Z,100.00
2022-10-05T06:25:26.117Z,100.00
2022-10-05T06:28:12.327Z,100.00
2022-10-05T06:30:49.684Z,100.00
2022-10-05T06:33:59.926Z,100.00
2022-10-05T06:37:03.649Z,100.00
2022-10-05T06:40:15.615Z,100.00
2022-10-05T06:43:26.300Z,100.00
2022-10-05T06:46:04.334Z,100.00
2022-10-05T06:48:52.358Z,100.00
2022-10-05T06:52:04.744Z,100.00
2022-10-05T06:54:50.125Z,100.00
2022-10-05T06:57:37.335Z,100.00
2022-10-05T07:03:55.628Z,100.00
2022-10-05T07:06:34.897Z,100.00
2022-10-05T07:09:21.963Z,100.00
2022-10-05T07:12:27.544Z,100.00
2022-10-05T07:15:35.323Z,100.00
2022-10-05T07:18:26.131Z,100.00
2022-10-05T07:21:24.969Z,100.00
2022-10-05T07:24:23.024Z,100.00
2022-10-05T07:27:23.322Z,100.00
2022-10-05T07:30:02.850Z,100.00
2022-10-05T07:33:14.966Z,100.00
2022-10-05T07:36:37.027Z,100.00
2022-10-05T07:39:17.872Z,100.00
2022-10-05T07:41:51.955Z,100.00
2022-10-05T07:44:28.444Z,100.00
2022-10-05T07:46:58.261Z,100.00
2022-10-05T07:49:57.361Z,100.00
2022-10-05T07:52:32.319Z,100.00
2022-10-05T07:55:20.239Z,100.00
2022-10-05T08:01:32.484Z,100.00
2022-10-05T08:04:21.216Z,100.00
2022-10-05T08:06:51.302Z,100.00
2022-10-05T08:09:41.421Z,100.00
2022-10-05T08:12:25.948Z,100.00
2022-10-05T08:14:53.956Z,100.00
2022-10-05T08:17:32.516Z,100.00
2022-10-05T08:20:06.794Z,100.00
2022-10-05T08:22:35.272Z,100.00
2022-10-05T08:25:09.805Z,100.00
2022-10-05T08:27:43.876Z,100.00
2022-10-05T08:30:12.801Z,100.00
2022-10-05T08:33:13.438Z,100.00
2022-10-05T08:35:45.715Z,100.00
2022-10-05T08:38:18.718Z,100.00
2022-10-05T08:41:23.045Z,100.00
2022-10-05T08:44:26.532Z,100.00
2022-10-05T08:47:16.231Z,100.00
2022-10-05T08:50:02.814Z,100.00
2022-10-05T08:52:37.684Z,100.00
2022-10-05T08:55:22.445Z,100.00
2022-10-05T08:58:26.994Z,100.00
2022-10-05T09:01:25.968Z,100.00
2022-10-05T09:04:30.210Z,100.00
2022-10-05T09:07:22.396Z,100.00
2022-10-05T09:10:42.983Z,100.00
2022-10-05T09:13:23.220Z,100.00
2022-10-05T09:16:27.493Z,100.00
2022-10-05T09:19:23.134Z,100.00
2022-10-05T09:22:06.657Z,100.00
2022-10-05T09:24:55.999Z,100.00
2022-10-05T09:27:39.892Z,100.00
2022-10-05T09:30:50.894Z,100.00
2022-10-05T09:33:43.714Z,100.00
2022-10-05T09:36:49.424Z,100.00
2022-10-05T09:42:36.198Z,99.19
2022-10-05T09:45:21.767Z,97.07
2022-10-05T09:48:45.455Z,95.38
2022-10-05T09:51:33.722Z,96.16
2022-10-05T09:54:33.895Z,94.68
2022-10-05T09:57:44.121Z,92.99
2022-10-05T10:00:36.472Z,92.73
2022-10-05T10:03:45.134Z,89.99
2022-10-05T10:06:40.719Z,90.37
2022-10-05T10:09:40.626Z,89.36
2022-10-05T10:15:54.120Z,88.86
2022-10-05T10:18:28.754Z,88.55
2022-10-05T10:21:07.838Z,88.30
2022-10-05T10:24:10.364Z,87.89
2022-10-05T10:27:01.889Z,87.84
2022-10-05T10:30:19.179Z,87.61
2022-10-05T10:33:14.414Z,85.28
2022-10-05T10:36:17.816Z,83.08
2022-10-05T10:39:23.391Z,82.51
2022-10-05T10:42:26.072Z,82.60
2022-10-05T10:45:14.506Z,82.47
2022-10-05T10:48:13.540Z,82.37
2022-10-05T10:51:12.175Z,82.05
2022-10-05T10:54:23.678Z,81.92
2022-10-05T10:57:22.263Z,82.12
2022-10-05T11:00:08.146Z,82.41
2022-10-05T11:03:16.911Z,82.67
2022-10-05T11:06:24.391Z,82.67
2022-10-05T11:08:57.622Z,83.05
2022-10-05T11:31:21.181Z,85.61
2022-10-05T11:34:27.290Z,85.71
2022-10-05T11:51:29.481Z,81.13
2022-10-05T11:54:18.720Z,80.15
2022-10-05T11:57:05.245Z,78.69
2022-10-05T11:59:36.962Z,78.21
2022-10-05T12:02:33.830Z,78.04
2022-10-05T12:05:52.193Z,77.15
2022-10-05T12:12:15.355Z,77.08
2022-10-05T12:14:52.240Z,76.16
2022-10-05T12:17:27.661Z,76.08
2022-10-05T12:20:00.037Z,75.55
2022-10-05T12:22:33.177Z,75.28
2022-10-05T12:25:29.649Z,74.06
2022-10-05T12:27:59.822Z,73.15
2022-10-05T12:30:53.414Z,72.17
2022-10-05T12:33:28.012Z,71.23
2022-10-05T12:35:59.472Z,71.06
2022-10-05T12:38:35.458Z,71.25
2022-10-05T12:41:19.120Z,71.26
2022-10-05T12:44:11.670Z,71.34
2022-10-05T12:47:28.390Z,69.97
2022-10-05T12:50:54.043Z,68.86
2022-10-05T12:53:53.008Z,68.43
2022-10-05T12:56:37.744Z,68.18
2022-10-05T12:59:25.471Z,68.30
2022-10-05T13:02:01.464Z,68.22
2022-10-05T13:04:52.409Z,68.67
2022-10-05T13:07:51.371Z,67.71
2022-10-05T13:10:28.241Z,68.29
2022-10-05T13:13:29.895Z,66.10
2022-10-05T13:16:15.687Z,67.20
2022-10-05T13:19:13.898Z,68.71
2022-10-05T13:22:14.474Z,67.41
2022-10-05T13:24:53.121Z,67.96
2022-10-05T13:27:24.191Z,65.05
2022-10-05T13:30:03.830Z,65.13
2022-10-05T13:32:36.028Z,64.96
2022-10-05T13:35:28.575Z,66.05
2022-10-05T13:38:18.094Z,66.36
2022-10-05T13:41:11.923Z,67.01
2022-10-05T13:44:22.921Z,66.39
2022-10-05T13:47:01.946Z,66.99
2022-10-05T13:49:55.980Z,67.86
2022-10-05T13:52:56.919Z,68.14
2022-10-05T13:56:02.167Z,67.83
2022-10-05T13:59:08.161Z,67.95
2022-10-05T14:01:43.921Z,67.10
2022-10-05T14:04:20.858Z,67.06
2022-10-05T14:06:49.189Z,67.75
2022-10-05T14:09:43.736Z,67.02
2022-10-05T14:12:14.616Z,67.27
2022-10-05T14:14:45.609Z,67.86
2022-10-05T14:17:38.101Z,68.04
2022-10-05T14:20:26.159Z,68.41
2022-10-05T14:23:17.318Z,67.98
2022-10-05T14:25:54.311Z,67.30
2022-10-05T14:28:39.773Z,68.90
2022-10-05T14:31:15.763Z,68.63
2022-10-05T14:33:42.899Z,69.21
2022-10-05T14:36:21.322Z,68.77
2022-10-05T14:38:56.003Z,69.15
2022-10-05T14:41:27.831Z,69.39
2022-10-05T14:44:06.211Z,69.62
2022-10-05T14:46:34.883Z,69.79
2022-10-05T14:49:26.786Z,70.16
2022-10-05T14:51:54.900Z,69.79
2022-10-05T14:54:54.599Z,70.61
2022-10-05T14:57:27.714Z,70.29
2022-10-05T15:00:18.875Z,70.60
2022-10-05T15:03:04.715Z,71.14
2022-10-05T15:05:40.527Z,70.43
2022-10-05T15:08:36.173Z,70.09
2022-10-05T15:11:20.891Z,70.01
2022-10-05T15:13:48.861Z,71.14
2022-10-05T15:16:25.207Z,71.30
2022-10-05T15:19:16.341Z,72.25
2022-10-05T15:21:49.070Z,72.50
2022-10-05T15:24:20.378Z,73.02
2022-10-05T15:27:02.067Z,73.63
2022-10-05T15:29:55.874Z,74.18
2022-10-05T15:33:01.807Z,74.40
2022-10-05T15:36:17.313Z,75.14
2022-10-05T15:39:14.023Z,75.36
2022-10-05T15:42:00.604Z,75.64
2022-10-05T15:44:44.533Z,75.12
2022-10-05T15:47:28.249Z,75.82
2022-10-05T15:50:16.191Z,75.20
2022-10-05T15:53:10.644Z,75.65
2022-10-05T15:55:59.093Z,75.32
2022-10-05T15:58:54.762Z,75.67
2022-10-05T16:01:44.807Z,76.35
2022-10-05T16:04:17.142Z,77.13
2022-10-05T16:07:21.096Z,76.31
2022-10-05T16:10:17.685Z,76.36
2022-10-05T16:13:29.834Z,77.10
2022-10-05T16:16:12.215Z,77.30
2022-10-05T16:18:59.982Z,77.20
2022-10-05T16:21:39.191Z,77.63
2022-10-05T16:24:37.542Z,77.90
2022-10-05T16:27:17.744Z,78.80
2022-10-05T16:30:02.499Z,78.79
2022-10-05T16:33:05.190Z,78.95
2022-10-05T16:36:08.378Z,79.14
2022-10-05T16:38:49.927Z,79.71
2022-10-05T16:41:48.872Z,80.26
2022-10-05T16:45:06.938Z,80.46
2022-10-05T16:48:01.002Z,80.87
2022-10-05T16:50:57.524Z,81.21
2022-10-05T16:53:46.154Z,81.87
2022-10-05T16:56:17.267Z,82.14
2022-10-05T16:59:00.341Z,82.55
2022-10-05T17:01:59.603Z,82.38
2022-10-05T17:08:15.437Z,83.22
2022-10-05T17:11:17.720Z,82.71
2022-10-05T17:13:50.888Z,83.54
2022-10-05T17:16:50.724Z,83.79
2022-10-05T17:22:53.662Z,84.42
2022-10-05T17:25:53.675Z,84.40
2022-10-05T17:28:23.531Z,84.64
2022-10-05T17:31:07.881Z,85.27
2022-10-05T17:34:13.673Z,85.75
2022-10-05T17:36:48.314Z,86.40
2022-10-05T17:39:17.912Z,86.46
2022-10-05T17:41:45.564Z,86.67
2022-10-05T17:44:24.640Z,86.82
2022-10-05T17:46:56.777Z,87.25
2022-10-05T17:50:31.806Z,87.99
2022-10-05T17:53:40.854Z,88.55
2022-10-05T17:56:08.410Z,88.51
2022-10-05T17:58:56.733Z,88.48
2022-10-05T18:01:40.333Z,89.17
2022-10-05T18:04:38.947Z,89.19
2022-10-05T18:07:17.093Z,89.50
2022-10-05T18:10:30.514Z,90.15
2022-10-05T18:13:33.231Z,90.91
2022-10-05T18:16:00.293Z,91.08
2022-10-05T18:18:37.105Z,91.39
2022-10-05T18:21:23.785Z,92.09
2022-10-05T18:24:04.274Z,92.56
2022-10-05T18:27:17.765Z,92.88
2022-10-05T18:30:05.835Z,93.37
2022-10-05T18:32:40.533Z,93.94
2022-10-05T18:35:18.748Z,94.57
2022-10-05T18:38:09.015Z,94.47
2022-10-05T18:41:01.035Z,94.77
2022-10-05T18:44:21.720Z,94.80
2022-10-05T18:47:20.907Z,95.75
2022-10-05T18:50:13.971Z,96.32
2022-10-05T18:53:03.417Z,96.35
2022-10-05T18:55:35.255Z,96.39
2022-10-05T18:58:37.431Z,96.20
2022-10-05T19:01:43.558Z,96.79
2022-10-05T19:04:38.572Z,97.05
2022-10-05T19:07:25.570Z,97.06
2022-10-05T19:10:23.370Z,97.34
2022-10-05T19:13:10.838Z,97.78
2022-10-05T19:16:26.614Z,97.40
2022-10-05T19:19:39.952Z,98.04
2022-10-05T19:22:40.507Z,98.23
2022-10-05T19:25:38.572Z,99.99
2022-10-05T19:28:14.339Z,99.63
2022-10-05T19:31:14.752Z,100.00
2022-10-05T19:34:03.209Z,100.00
2022-10-05T19:37:14.284Z,100.00
2022-10-05T19:39:55.764Z,100.00
2022-10-05T19:42:51.664Z,100.00
2022-10-05T19:45:23.670Z,100.00
2022-10-05T19:48:43.328Z,100.00
2022-10-05T19:51:31.366Z,100.00
2022-10-05T19:54:02.624Z,100.00
2022-10-05T19:56:34.403Z,100.00
2022-10-05T19:59:13.514Z,100.00
2022-10-05T20:01:48.863Z,100.00
2022-10-05T20:04:55.163Z,100.00
2022-10-05T20:07:23.153Z,100.00
2022-10-05T20:10:19.118Z,100.00
2022-10-05T20:12:52.514Z,100.00
2022-10-05T20:15:43.734Z,100.00
2022-10-05T20:18:57.804Z,100.00
2022-10-05T20:21:39.632Z,100.00
2022-10-05T20:24:11.654Z,100.00
2022-10-05T20:27:02.116Z,100.00
2022-10-05T20:29:30.485Z,100.00
2022-10-05T20:31:57.629Z,100.00
2022-10-05T20:34:25.151Z,100.00
2022-10-05T20:36:52.158Z,100.00
2022-10-05T20:39:19.603Z,100.00
2022-10-05T20:41:46.446Z,100.00
2022-10-05T20:44:13.844Z,100.00
2022-10-05T20:46:43.551Z,100.00
2022-10-05T20:49:10.835Z,100.00
2022-10-05T20:51:38.857Z,100.00
2022-10-05T20:54:05.894Z,100.00
2022-10-05T20:56:33.242Z,100.00
2022-10-05T20:59:00.651Z,100.00
2022-10-05T21:01:29.099Z,100.00
2022-10-05T21:03:56.547Z,100.00
2022-10-05T21:06:26.511Z,100.00
2022-10-05T21:08:54.442Z,100.00
2022-10-05T21:11:21.623Z,100.00
2022-10-05T21:13:49.767Z,100.00
2022-10-05T21:16:18.802Z,100.00
2022-10-05T21:18:49.218Z,100.00
2022-10-05T21:21:17.566Z,100.00
2022-10-05T21:23:45.745Z,100.00
2022-10-05T21:26:13.187Z,100.00
2022-10-05T21:28:40.641Z,100.00
2022-10-05T21:31:08.694Z,100.00
2022-10-05T21:33:36.413Z,100.00
2022-10-05T21:36:03.980Z,100.00
2022-10-05T21:38:31.031Z,100.00
2022-10-05T21:40:58.004Z,100.00
2022-10-05T21:43:25.734Z,100.00
2022-10-05T21:45:55.707Z,100.00
2022-10-05T21:48:22.870Z,100.00
2022-10-05T21:50:49.670Z,100.00
2022-10-05T21:53:18.159Z,100.00
2022-10-05T21:55:47.233Z,100.00
2022-10-05T21:58:15.110Z,100.00
2022-10-05T22:00:42.235Z,100.00
2022-10-05T22:03:09.122Z,100.00
2022-10-05T22:05:36.814Z,100.00
2022-10-05T22:08:04.672Z,100.00
2022-10-05T22:10:32.590Z,100.00
2022-10-05T22:13:03.900Z,100.00
2022-10-05T22:15:31.615Z,100.00
2022-10-05T22:18:00.109Z,100.00
2022-10-05T22:20:27.251Z,100.00
2022-10-05T22:22:54.239Z,100.00
2022-10-05T22:25:21.903Z,100.00
2022-10-05T22:27:49.427Z,100.00
2022-10-05T22:30:16.486Z,100.00
2022-10-05T22:32:43.902Z,100.00
2022-10-05T22:35:11.862Z,100.00
2022-10-05T22:37:39.059Z,100.00
2022-10-05T22:40:06.900Z,100.00
2022-10-05T22:42:33.797Z,100.00
2022-10-05T22:45:00.629Z,100.00
2022-10-05T22:47:27.497Z,100.00
2022-10-05T22:49:54.342Z,100.00
2022-10-05T22:52:21.121Z,100.00
2022-10-05T22:54:47.953Z,100.00
2022-10-05T22:57:14.718Z,100.00
2022-10-05T22:59:41.998Z,100.00
2022-10-05T23:02:09.007Z,100.00
2022-10-05T23:04:35.971Z,100.00
2022-10-05T23:07:03.134Z,100.00
2022-10-05T23:09:29.929Z,100.00
2022-10-05T23:11:57.438Z,100.00
2022-10-05T23:14:24.406Z,100.00
2022-10-05T23:16:51.812Z,100.00
2022-10-05T23:19:19.097Z,100.00
2022-10-05T23:21:46.001Z,100.00
2022-10-05T23:24:12.884Z,100.00
2022-10-05T23:26:39.919Z,100.00
2022-10-05T23:29:06.924Z,100.00
2022-10-05T23:31:34.743Z,100.00
2022-10-05T23:34:01.996Z,100.00
2022-10-05T23:36:33.442Z,100.00
2022-10-05T23:39:00.565Z,100.00
2022-10-05T23:41:27.725Z,100.00
2022-10-05T23:43:57.467Z,100.00
2022-10-05T23:46:24.448Z,100.00
2022-10-05T23:48:51.451Z,100.00
2022-10-05T23:51:18.471Z,100.00
2022-10-05T23:53:45.548Z,100.00
2022-10-05T23:56:13.190Z,100.00
2022-10-05T23:58:40.852Z,100.00
